Australia — 5IM917 — position and weather

sailwx.info

Track history (hours):
 
Tides and Currents Weather Stations Pressure Air Temp Water Temp Dewpoint Dewpoint Depression Visibility Wind Speed Wind Dir Waves Ship Positions

Australia

Last reported at 2017-Dec-28 23:10 UTC. Time now 2018-Jan-21 08:47 UTC.
Position N 40°59' E 028°17'.
Warning: this ship's position is 23 days out of date.

Length 34 m; draft 5 m.

Type: Tug. MMSI: 677081385.

Date/timePositionNaut miles runAvg speedWind from/ knotsBaromVisibWave heightAir tempDewpointWater temp
2017-Dec-28 23:10N 40°59' E 028°17'1 4.5
2017-Dec-28 23:01N 40°59' E 028°16'1 2.6
2017-Dec-28 22:30N 40°59' E 028°15'208 4.1
2017-Dec-26 19:50N 37°51' E 026°19'3 8.3
2017-Dec-26 19:30N 37°49' E 026°21'5 8.2
2017-Dec-26 18:52N 37°46' E 026°26'9 8.6
2017-Dec-26 17:50N 37°39' E 026°34'17 8.3
2017-Dec-26 15:50N 37°23' E 026°39'4 8.6
2017-Dec-26 15:25N 37°20' E 026°39'  
Track history (hours):
 
Tides and Currents Weather Stations Pressure Air Temp Water Temp Dewpoint Dewpoint Depression Visibility Wind Speed Wind Dir Waves Ship Positions

Australia

Last reported at 2017-Dec-28 23:10 UTC. Time now 2018-Jan-21 08:47 UTC.
Position N 40°59' E 028°17'.
Warning: this ship's position is 23 days out of date.

Length 34 m; draft 5 m.

Type: Tug. MMSI: 677081385.

Date/timePositionNaut miles runAvg speedWind from/ knotsBaromVisibWave heightAir tempDewpointWater temp
2017-Dec-28 23:10N 40°59' E 028°17'1 4.5
2017-Dec-28 23:01N 40°59' E 028°16'1 2.6
2017-Dec-28 22:30N 40°59' E 028°15'208 4.1
2017-Dec-26 19:50N 37°51' E 026°19'3 8.3
2017-Dec-26 19:30N 37°49' E 026°21'5 8.2
2017-Dec-26 18:52N 37°46' E 026°26'9 8.6
2017-Dec-26 17:50N 37°39' E 026°34'17 8.3
2017-Dec-26 15:50N 37°23' E 026°39'4 8.6
2017-Dec-26 15:25N 37°20' E 026°39'  

Dump ship's entire track history